Decoded Metar for ROIG (ISHIGAKI in JAPAN) (IATA:ISG) | Meteo·Mobile Aviation Weather
aviador You're here:

ROIG Decoded Metar

ISHIGAKI in JAPAN
Report Time2018-11-14 10:00:00
UTC Time2018-11-14 10:53:30
Flight Rules vfr VFR
Wind020° at 08 kt
W.Decomp.*RWY 04: 7.7 kt HW 2.2 kt LCW
W.Rank020° ranks 1
Current wind is below 020° avg. (11.5)
Visibility9999 m
Phenomena:N/A
Clouds:Few 028 Hf
Expected CloudBase > 2,000 ft AGL from Temp-Dew spread
CeilingNone
Temp21°C (ISA +6)
Dew Point16°C (73% RH)
AAT20.1°C
QNH1016 hPa
Density Alt869 ft
Elevation23 ft
Report Wrong Elevation
Raw Report
METAR ROIG 141000Z 02008KT 9999 FEW028 21/16 Q1016=

Extra information for ROIG:More info

Metar Taf Metar & Taf Last 4 Metars F.Rules Stats Wind Profile Meteogram Temp Stats Airport Information Weather charts Add Link Nearby VenuesMetar ALERT Operation Metar Decoded Social comments